CDT,Max TemperatureF,Mean TemperatureF,Min TemperatureF,Max Dew PointF,MeanDew PointF,Min DewpointF,Max Humidity, Mean Humidity, Min Humidity, Max Sea Level PressureIn, Mean Sea Level PressureIn, Min Sea Level PressureIn, Max VisibilityMiles, Mean VisibilityMiles, Min VisibilityMiles, Max Wind SpeedMPH, Mean Wind SpeedMPH, Max Gust SpeedMPH,PrecipitationIn, CloudCover, Events, WindDirDegrees
2013-5-1,50,41,32,45,37,30,100,87,66,30.42,30.21,29.91,10,10,7,12,4,16,0.05,8,Rain,337
2013-5-2,32,30,28,32,30,27,100,94,86,30.45,30.39,30.33,10,4,2,15,10,20,0.01,8,Snow,1
2013-5-3,32,30,28,32,30,27,100,96,87,30.33,30.22,30.15,10,5,1,13,8,21,0.00,8,Snow,21
2013-5-4,53,42,32,43,36,32,100,91,67,30.19,30.15,30.12,10,8,0,10,5,16,0.17,5,Fog,12
2013-5-5,68,50,32,43,37,32,100,74,37,30.17,30.13,30.07,10,7,0,12,5,,0.00,4,Fog,6
2013-5-6,75,52,30,41,33,25,100,59,16,30.13,30.09,30.03,10,10,10,13,2,16,0.00,0,,315
2013-5-7,77,54,32,41,33,23,100,55,13,30.12,30.06,30.01,10,10,7,10,2,10,0.00,2,,187
2013-5-8,77,57,37,43,36,28,93,49,17,30.05,30.02,29.98,10,10,10,13,2,20,0.00,5,,302
2013-5-9,51,42,33,41,36,30,100,85,62,30.14,30.10,30.01,10,8,3,15,7,21,0.07,8,Rain,27
2013-5-10,57,44,30,32,26,18,93,60,21,30.13,30.02,29.89,10,10,10,12,7,17,0.00,1,,21
2013-5-11,42,37,32,36,30,25,100,76,53,29.97,29.88,29.79,10,8,1,23,9,33,0.00,8,Rain-Snow,318
2013-5-12,42,34,24,30,22,14,93,66,31,30.10,30.05,29.98,10,9,1,21,11,28,0.00,5,Snow,335
2013-5-13,55,37,19,30,21,14,100,53,20,30.12,30.02,29.80,10,10,10,10,2,18,0.00,2,Rain,195
2013-5-14,77,58,39,46,37,30,77,48,24,29.80,29.67,29.48,10,10,10,15,5,24,0.00,2,Rain,173
2013-5-15,73,62,51,46,36,30,82,39,22,29.84,29.75,29.53,10,10,10,20,10,32,0.00,1,,310
2013-5-16,68,52,37,41,31,19,93,45,16,30.09,29.98,29.84,10,10,5,10,5,16,0.00,0,,3
2013-5-17,69,53,37,46,37,28,93,57,27,30.15,30.11,30.07,10,10,10,9,3,,0.00,4,,139
2013-5-18,71,61,51,55,51,46,100,78,53,30.12,30.04,29.94,10,9,2,10,5,16,0.13,7,Rain,149
2013-5-19,82,70,57,59,57,54,94,67,37,29.95,29.87,29.79,10,8,2,13,5,24,0.02,3,Rain,159
2013-5-20,78,66,53,61,54,46,94,68,32,29.80,29.70,29.63,10,10,7,16,7,23,0.00,4,Rain-Thunderstorm,154
2013-5-21,71,58,44,59,54,45,100,87,53,29.75,29.66,29.61,10,8,1,13,5,21,0.51,7,Rain-Thunderstorm,91
2013-5-22,50,46,41,47,44,38,100,93,83,30.00,29.82,29.74,10,6,2,22,8,26,0.10,8,Rain,25
2013-5-23,49,40,30,37,31,28,96,73,45,30.35,30.21,30.01,10,10,7,21,12,29,0.01,4,,9
2013-5-24,63,44,25,34,28,25,98,58,24,30.44,30.37,30.29,10,10,2,8,2,,0.00,0,,120
2013-5-25,68,50,33,41,34,31,98,62,26,30.41,30.34,30.28,10,10,10,10,3,,0.00,1,,136
2013-5-26,69,50,32,39,31,20,98,56,15,30.36,30.29,30.19,10,10,10,13,2,18,0.00,0,,131
2013-5-27,70,52,35,39,33,28,94,48,23,30.22,30.08,29.96,10,10,10,14,5,24,0.00,2,,140
2013-5-28,59,54,50,52,47,39,96,75,54,29.95,29.83,29.76,10,10,7,9,4,,0.00,8,Rain,133
2013-5-29,78,65,52,63,55,48,97,77,35,29.89,29.84,29.79,10,9,2,10,3,23,0.15,5,Rain-Thunderstorm,198
2013-5-30,82,71,60,65,62,59,97,83,46,29.84,29.78,29.70,10,10,3,16,7,28,0.27,4,Rain-Thunderstorm,171
2013-5-31,80,67,55,63,55,48,95,71,34,29.74,29.69,29.65,10,10,7,15,9,28,0.08,5,Rain-Thunderstorm,187